Time;durP1;ratioP1;P1;durP2;ratioP2;P2;SDS_P1;SDS_P2;PMS_P1;PMS_P2;Temp;Humidity;BMP_temperature;BMP_pressure;BME280_temperature;BME280_humidity;BME280_pressure;Samples;Min_cycle;Max_cycle;Signal;HPM_P1;HPM_P2
2022/09/12 00:02:21;;;;;;;3.88;2.75;;;13.30;23.90;;;;;;5104926;28;34262;-77
2022/09/12 00:04:48;;;;;;;4.80;2.67;;;13.30;24.20;;;;;;5087939;27;34160;-77
2022/09/12 00:07:14;;;;;;;6.40;3.60;;;13.30;24.30;;;;;;5107559;27;34380;-77
2022/09/12 00:09:40;;;;;;;3.30;3.00;;;13.30;24.50;;;;;;5106577;27;34231;-77
2022/09/12 00:12:07;;;;;;;3.38;2.85;;;13.30;24.60;;;;;;5106871;27;35600;-77
2022/09/12 00:14:33;;;;;;;2.90;2.60;;;13.20;24.70;;;;;;5107746;27;34037;-77
2022/09/12 00:16:59;;;;;;;3.80;3.03;;;13.20;24.90;;;;;;5106685;27;34195;-77
2022/09/12 00:19:27;;;;;;;4.78;3.13;;;13.20;24.90;;;;;;5107510;27;34644;-77
2022/09/12 00:21:54;;;;;;;6.10;3.30;;;13.20;24.80;;;;;;5106938;27;36655;-77
2022/09/12 00:24:20;;;;;;;5.75;2.72;;;13.20;24.10;;;;;;5138725;27;34386;-77
2022/09/12 00:26:46;;;;;;;5.90;3.00;;;13.20;24.30;;;;;;5092791;27;34236;-77
2022/09/12 00:29:20;;;;;;;3.08;2.60;;;13.10;24.10;;;;;;5070437;28;34650;-77
2022/09/12 00:31:47;;;;;;;6.45;3.63;;;13.20;25.70;;;;;;5086264;28;36319;-77
2022/09/12 00:34:13;;;;;;;3.97;3.20;;;13.20;24.90;;;;;;5097886;27;34391;-77
2022/09/12 00:36:39;;;;;;;6.00;3.20;;;13.20;24.20;;;;;;5095527;28;34313;-77
2022/09/12 00:39:06;;;;;;;4.50;3.30;;;13.30;24.70;;;;;;5104715;28;34071;-77
2022/09/12 00:41:35;;;;;;;3.40;3.05;;;13.30;24.50;;;;;;5069668;28;35551;-77
2022/09/12 00:44:18;;;;;;;7.55;3.72;;;13.30;24.90;;;;;;5103078;28;34339;-77
2022/09/12 00:47:03;;;;;;;5.47;2.90;;;13.40;24.60;;;;;;5108759;27;34330;-77
2022/09/12 00:49:36;;;;;;;6.25;3.35;;;13.40;26.20;;;;;;5106659;27;34255;-76
2022/09/12 00:52:10;;;;;;;3.42;3.13;;;13.40;24.90;;;;;;5105768;27;36750;-77
2022/09/12 00:54:49;;;;;;;4.18;3.40;;;13.50;25.40;;;;;;5106749;27;34115;-77
2022/09/12 00:57:17;;;;;;;4.50;3.08;;;13.50;25.00;;;;;;5101175;27;34320;-77
2022/09/12 00:59:48;;;;;;;5.05;3.03;;;13.50;24.60;;;;;;5125748;27;34690;-77
2022/09/12 01:02:14;;;;;;;5.82;3.40;;;13.50;24.70;;;;;;5126771;27;35899;-77
2022/09/12 01:04:42;;;;;;;6.07;3.78;;;13.50;24.20;;;;;;5126835;27;34094;-77
2022/09/12 01:07:08;;;;;;;7.22;3.63;;;13.60;24.50;;;;;;5091228;28;34250;-78
2022/09/12 01:09:36;;;;;;;6.78;3.22;;;13.60;24.40;;;;;;5086483;27;34135;-77
2022/09/12 01:12:03;;;;;;;3.53;3.15;;;13.60;24.00;;;;;;5106110;27;35591;-77
2022/09/12 01:14:30;;;;;;;3.20;2.90;;;13.60;24.50;;;;;;5092684;27;34156;-77
2022/09/12 01:16:56;;;;;;;5.82;3.50;;;13.50;24.80;;;;;;5094514;27;34309;-77
2022/09/12 01:19:54;;;;;;;8.77;3.03;;;13.50;24.50;;;;;;5127513;27;34326;-77
2022/09/12 01:22:47;;;;;;;3.90;3.30;;;13.50;25.70;;;;;;5144215;27;34424;-77
2022/09/12 01:25:31;;;;;;;6.75;3.10;;;13.50;25.50;;;;;;5086102;28;34269;-77
2022/09/12 01:28:32;;;;;;;4.18;3.15;;;13.50;25.40;;;;;;5107487;27;34463;-77
2022/09/12 01:31:12;;;;;;;4.90;3.05;;;13.50;25.00;;;;;;5092465;27;34463;-77
2022/09/12 01:34:03;;;;;;;4.05;3.20;;;13.50;24.40;;;;;;5124571;27;35442;-77
2022/09/12 01:36:37;;;;;;;3.88;3.38;;;13.50;25.00;;;;;;5110507;27;34194;-77
2022/09/12 01:39:19;;;;;;;4.55;3.80;;;13.50;24.40;;;;;;5089963;27;34021;-77
2022/09/12 01:41:58;;;;;;;6.55;3.45;;;13.50;25.00;;;;;;5105791;27;34498;-77
2022/09/12 01:44:46;;;;;;;6.28;3.60;;;13.50;25.00;;;;;;5106150;27;35935;-77
2022/09/12 01:47:38;;;;;;;5.90;3.42;;;13.60;24.70;;;;;;5105456;27;34488;-77
2022/09/12 01:50:09;;;;;;;9.13;3.92;;;13.60;26.20;;;;;;5102591;28;34194;-77
2022/09/12 01:52:47;;;;;;;9.07;4.20;;;13.60;25.00;;;;;;5068824;28;34050;-77
2022/09/12 01:55:21;;;;;;;10.98;4.22;;;13.60;24.40;;;;;;5087571;28;35592;-77
2022/09/12 01:58:02;;;;;;;10.85;4.18;;;13.60;24.90;;;;;;5102363;27;34538;-76
2022/09/12 02:00:30;;;;;;;10.65;3.95;;;13.60;24.30;;;;;;5109761;27;34534;-77
2022/09/12 02:03:10;;;;;;;9.43;4.13;;;13.60;24.90;;;;;;5127555;27;34074;-77
2022/09/12 02:05:51;;;;;;;7.22;3.67;;;13.60;24.70;;;;;;5101797;28;36512;-77
2022/09/12 02:08:22;;;;;;;8.50;3.65;;;13.60;25.20;;;;;;5072031;28;35421;-77
2022/09/12 02:10:56;;;;;;;12.18;4.20;;;13.60;24.50;;;;;;5107673;28;34827;-77
2022/09/12 02:13:38;;;;;;;17.75;4.15;;;13.60;24.80;;;;;;5072184;28;34105;-77
2022/09/12 02:16:10;;;;;;;7.05;3.85;;;13.60;25.20;;;;;;5088607;28;35808;-77
2022/09/12 02:18:40;;;;;;;9.45;3.97;;;13.60;25.00;;;;;;5055589;28;34129;-77
2022/09/12 02:21:07;;;;;;;5.63;4.20;;;13.60;25.60;;;;;;5087730;28;34322;-77
2022/09/12 02:23:37;;;;;;;13.38;4.20;;;13.60;25.00;;;;;;5089001;28;34215;-76
2022/09/12 02:26:11;;;;;;;10.15;3.85;;;13.60;25.00;;;;;;5106827;28;34515;-77
2022/09/12 02:28:41;;;;;;;10.30;3.80;;;13.60;25.80;;;;;;5123783;27;34010;-76
2022/09/12 02:31:28;;;;;;;11.05;4.40;;;13.60;26.00;;;;;;5094462;27;34314;-76
2022/09/12 02:34:16;;;;;;;5.05;3.30;;;13.60;26.10;;;;;;5129622;27;34086;-76
2022/09/12 02:37:11;;;;;;;8.30;3.90;;;13.60;26.10;;;;;;5106158;27;35530;-77
2022/09/12 02:39:37;;;;;;;4.50;3.30;;;13.60;26.90;;;;;;5060515;28;34307;-77
2022/09/12 02:42:04;;;;;;;8.40;4.10;;;13.60;25.50;;;;;;5108496;27;34207;-77
2022/09/12 02:44:31;;;;;;;10.82;3.63;;;13.60;25.30;;;;;;5109156;27;34079;-77
2022/09/12 02:47:18;;;;;;;8.68;4.15;;;13.60;25.00;;;;;;5107904;27;35473;-77
2022/09/12 02:49:45;;;;;;;7.78;3.92;;;13.60;25.80;;;;;;5098561;28;34079;-77
2022/09/12 02:52:11;;;;;;;7.20;3.72;;;13.50;24.40;;;;;;5096711;28;34486;-77
2022/09/12 02:54:38;;;;;;;8.90;3.72;;;13.60;25.40;;;;;;5088109;28;34479;-77
2022/09/12 02:57:14;;;;;;;5.45;3.00;;;13.50;25.10;;;;;;5088332;28;35602;-77
2022/09/12 02:59:41;;;;;;;14.13;3.47;;;13.60;24.80;;;;;;5089054;28;34093;-77
2022/09/12 03:02:30;;;;;;;11.57;3.33;;;13.60;24.90;;;;;;5097329;28;34152;-77
2022/09/12 03:05:17;;;;;;;5.10;3.72;;;13.60;26.70;;;;;;5114876;27;34355;-77
2022/09/12 03:08:14;;;;;;;8.88;3.33;;;13.60;25.10;;;;;;5115256;27;35598;-77
2022/09/12 03:11:13;;;;;;;8.02;3.28;;;13.60;25.90;;;;;;5128924;27;34174;-77
2022/09/12 03:14:09;;;;;;;6.03;2.92;;;13.60;27.30;;;;;;5129241;27;34081;-77
2022/09/12 03:16:56;;;;;;;4.05;2.80;;;13.60;26.20;;;;;;5129094;27;34466;-77
2022/09/12 03:19:40;;;;;;;4.97;2.80;;;13.60;26.60;;;;;;5087949;28;35977;-77
2022/09/12 03:22:25;;;;;;;5.00;2.90;;;13.60;25.80;;;;;;5092856;27;34406;-77
2022/09/12 03:25:21;;;;;;;7.80;3.38;;;13.60;25.30;;;;;;5108165;27;34044;-77
2022/09/12 03:27:57;;;;;;;5.10;2.70;;;13.60;25.60;;;;;;5092304;27;34504;-78
2022/09/12 03:30:23;;;;;;;6.00;3.22;;;13.60;25.50;;;;;;5108170;27;35610;-77
2022/09/12 03:32:52;;;;;;;11.55;3.20;;;13.60;25.20;;;;;;5087749;28;34063;-77
2022/09/12 03:35:21;;;;;;;3.65;3.10;;;13.50;25.80;;;;;;5111685;27;34083;-77
2022/09/12 03:37:48;;;;;;;9.38;3.15;;;13.50;26.00;;;;;;5107284;27;34488;-77
2022/09/12 03:40:14;;;;;;;5.68;3.50;;;13.40;27.20;;;;;;5107690;27;35613;-77
2022/09/12 03:42:41;;;;;;;4.18;3.30;;;13.50;26.10;;;;;;5107575;27;34257;-77
2022/09/12 03:45:08;;;;;;;11.05;3.45;;;13.50;26.10;;;;;;5107514;27;34220;-77
2022/09/12 03:47:34;;;;;;;5.28;3.38;;;13.40;25.60;;;;;;5113241;27;34435;-77
2022/09/12 03:50:01;;;;;;;10.48;4.05;;;13.40;25.90;;;;;;5122874;27;34506;-77
2022/09/12 03:52:27;;;;;;;3.90;3.30;;;13.40;25.70;;;;;;5090514;27;34193;-77
2022/09/12 03:54:53;;;;;;;7.22;3.45;;;13.40;25.70;;;;;;5107819;27;34337;-77
2022/09/12 03:57:19;;;;;;;7.95;3.17;;;13.40;25.60;;;;;;5108572;27;34307;-78
2022/09/12 03:59:47;;;;;;;7.28;3.78;;;13.40;25.90;;;;;;5125832;27;35374;-77
2022/09/12 04:02:13;;;;;;;4.05;3.28;;;13.30;25.40;;;;;;5106858;27;34126;-77
2022/09/12 04:04:42;;;;;;;5.55;3.30;;;13.30;25.60;;;;;;5090777;27;34203;-77
2022/09/12 04:07:09;;;;;;;5.78;3.00;;;13.30;25.90;;;;;;5107066;27;35274;-77
2022/09/12 04:09:35;;;;;;;4.43;3.10;;;13.30;26.40;;;;;;5107316;27;35495;-77
2022/09/12 04:12:01;;;;;;;6.93;3.45;;;13.30;26.20;;;;;;5107180;27;34286;-77
2022/09/12 04:14:27;;;;;;;7.13;3.35;;;13.30;26.00;;;;;;5085924;27;34097;-78
2022/09/12 04:16:53;;;;;;;9.38;3.05;;;13.30;26.00;;;;;;5107081;27;34402;-77
2022/09/12 04:19:18;;;;;;;10.52;3.03;;;13.30;26.00;;;;;;5107701;27;36692;-77
2022/09/12 04:21:45;;;;;;;6.97;3.30;;;13.30;26.40;;;;;;5090545;27;34217;-77
2022/09/12 04:24:11;;;;;;;12.43;3.22;;;13.30;26.20;;;;;;5105795;27;34880;-77
2022/09/12 04:26:38;;;;;;;10.50;3.35;;;13.30;25.80;;;;;;5106929;27;34441;-78
2022/09/12 04:29:03;;;;;;;4.88;3.13;;;13.30;26.80;;;;;;5125418;27;34381;-77
2022/09/12 04:31:29;;;;;;;12.98;3.38;;;13.30;26.00;;;;;;5107501;27;34232;-77
2022/09/12 04:33:58;;;;;;;4.38;2.92;;;13.30;26.80;;;;;;5106970;27;34223;-77
2022/09/12 04:36:25;;;;;;;3.10;2.70;;;13.20;25.80;;;;;;5086635;28;34584;-77
2022/09/12 04:38:52;;;;;;;4.55;3.45;;;13.20;25.50;;;;;;5104542;28;35313;-77
2022/09/12 04:41:21;;;;;;;10.18;3.25;;;13.30;26.60;;;;;;5102932;28;34180;-77
2022/09/12 04:43:50;;;;;;;4.75;2.97;;;13.30;25.80;;;;;;5070151;28;34098;-77
2022/09/12 04:46:19;;;;;;;5.97;2.90;;;13.30;26.60;;;;;;5130659;27;34325;-77
2022/09/12 04:48:46;;;;;;;4.15;3.00;;;13.30;25.80;;;;;;5111821;27;36045;-78
2022/09/12 04:51:16;;;;;;;9.43;3.50;;;13.30;25.80;;;;;;5112030;27;35434;-77
2022/09/12 04:53:42;;;;;;;4.70;3.60;;;13.30;25.00;;;;;;5076434;28;34097;-77
2022/09/12 04:56:10;;;;;;;4.88;3.40;;;13.20;26.20;;;;;;5094077;28;34306;-77
2022/09/12 04:58:37;;;;;;;5.10;3.20;;;13.20;25.70;;;;;;5080395;28;35790;-77
2022/09/12 05:01:05;;;;;;;9.93;3.38;;;13.30;25.70;;;;;;5102430;28;34913;-77
2022/09/12 05:03:32;;;;;;;3.88;3.42;;;13.20;25.80;;;;;;5103214;27;34394;-78
2022/09/12 05:05:58;;;;;;;8.95;3.58;;;13.30;25.60;;;;;;5105112;27;34362;-78
2022/09/12 05:08:25;;;;;;;5.22;3.40;;;13.30;25.90;;;;;;5120618;27;34842;-78
2022/09/12 05:10:51;;;;;;;6.30;3.22;;;13.30;25.80;;;;;;5089773;28;34176;-78
2022/09/12 05:13:17;;;;;;;5.18;2.90;;;13.30;25.60;;;;;;5085126;28;34326;-78
2022/09/12 05:15:43;;;;;;;8.48;3.80;;;13.30;25.50;;;;;;5098653;28;34269;-77
2022/09/12 05:18:09;;;;;;;4.35;3.58;;;13.30;25.70;;;;;;5089608;27;36435;-78
2022/09/12 05:20:35;;;;;;;5.22;3.60;;;13.30;25.10;;;;;;5106911;27;34113;-78
2022/09/12 05:23:01;;;;;;;10.43;3.15;;;13.30;25.10;;;;;;5107066;27;34086;-78
2022/09/12 05:25:27;;;;;;;12.80;3.70;;;13.30;25.10;;;;;;5124832;27;34217;-77
2022/09/12 05:27:53;;;;;;;7.97;3.63;;;13.30;25.00;;;;;;5093248;27;35786;-78
2022/09/12 05:30:18;;;;;;;7.43;3.40;;;13.30;25.10;;;;;;5102802;28;34080;-78
2022/09/12 05:32:44;;;;;;;5.32;3.78;;;13.30;25.10;;;;;;5113286;27;34245;-78
2022/09/12 05:35:11;;;;;;;5.80;3.50;;;13.30;25.50;;;;;;5122496;27;34312;-77
2022/09/12 05:37:37;;;;;;;6.30;3.72;;;13.30;25.70;;;;;;5108617;27;36046;-77
2022/09/12 05:40:06;;;;;;;5.47;3.35;;;13.30;26.50;;;;;;5106010;27;34219;-78
2022/09/12 05:42:35;;;;;;;7.13;3.53;;;13.30;25.60;;;;;;5099943;28;34598;-78
2022/09/12 05:45:01;;;;;;;5.55;3.38;;;13.30;25.10;;;;;;5104712;27;34204;-78
2022/09/12 05:47:33;;;;;;;6.72;3.63;;;13.40;25.50;;;;;;5068301;27;35938;-78
2022/09/12 05:49:59;;;;;;;5.97;3.75;;;13.30;25.60;;;;;;5085527;28;34080;-78
2022/09/12 05:52:25;;;;;;;9.68;3.45;;;13.30;25.60;;;;;;5096292;27;34068;-78
2022/09/12 05:54:51;;;;;;;4.28;3.42;;;13.40;26.00;;;;;;5089672;27;34258;-78
2022/09/12 05:57:17;;;;;;;4.80;3.30;;;13.40;26.60;;;;;;5112410;27;34829;-78
2022/09/12 05:59:45;;;;;;;8.07;3.83;;;13.40;25.70;;;;;;5088729;27;34275;-78
2022/09/12 06:02:11;;;;;;;5.90;3.50;;;13.40;26.40;;;;;;5068889;28;34134;-78
2022/09/12 06:04:39;;;;;;;6.25;3.47;;;13.40;26.70;;;;;;5104377;27;34404;-79
2022/09/12 06:07:05;;;;;;;7.82;3.78;;;13.40;26.60;;;;;;5120260;27;34272;-77
2022/09/12 06:09:34;;;;;;;7.53;3.65;;;13.50;26.80;;;;;;5103571;28;34117;-78
2022/09/12 06:12:00;;;;;;;6.18;3.45;;;13.50;26.00;;;;;;5087315;27;34058;-79
2022/09/12 06:14:34;;;;;;;6.63;3.85;;;13.50;25.80;;;;;;5106816;27;34112;-78
2022/09/12 06:17:01;;;;;;;4.93;3.65;;;13.50;25.60;;;;;;5124194;27;36404;-78
2022/09/12 06:19:27;;;;;;;5.05;3.55;;;13.50;25.40;;;;;;5105461;27;34452;-77
2022/09/12 06:21:53;;;;;;;5.15;3.65;;;13.50;25.20;;;;;;5105760;27;34139;-77
2022/09/12 06:24:20;;;;;;;5.20;3.45;;;13.60;25.70;;;;;;5106173;27;34132;-77
2022/09/12 06:26:47;;;;;;;6.32;4.22;;;13.60;25.50;;;;;;5105815;27;35624;-77
2022/09/12 06:29:18;;;;;;;4.57;3.85;;;13.70;25.50;;;;;;5123861;27;34227;-78
2022/09/12 06:31:44;;;;;;;6.13;3.83;;;13.80;25.10;;;;;;5104915;27;34353;-77
2022/09/12 06:34:13;;;;;;;4.97;3.78;;;13.80;25.40;;;;;;5105019;27;34132;-77
2022/09/12 06:36:49;;;;;;;8.68;3.90;;;13.90;25.20;;;;;;5094846;27;36204;-78
2022/09/12 06:39:19;;;;;;;4.40;3.22;;;13.90;25.60;;;;;;5110408;27;34109;-77
2022/09/12 06:41:50;;;;;;;5.60;3.95;;;13.90;25.50;;;;;;5124792;27;34278;-78
2022/09/12 06:44:21;;;;;;;4.07;3.30;;;14.00;25.40;;;;;;5119005;27;34536;-77
2022/09/12 06:46:47;;;;;;;5.28;3.35;;;14.10;26.10;;;;;;5102289;27;36108;-77
2022/09/12 06:49:14;;;;;;;7.15;4.18;;;14.20;26.50;;;;;;5107930;27;34150;-77
2022/09/12 06:51:43;;;;;;;4.90;3.58;;;14.20;25.70;;;;;;5138541;27;34218;-77
2022/09/12 06:54:12;;;;;;;5.47;3.60;;;14.30;25.20;;;;;;5137174;27;34502;-77
2022/09/12 06:56:46;;;;;;;9.80;3.83;;;14.30;26.20;;;;;;5125287;27;35752;-78
2022/09/12 06:59:12;;;;;;;8.23;3.70;;;14.40;25.90;;;;;;5123844;27;34142;-78
2022/09/12 07:01:39;;;;;;;4.13;3.13;;;14.50;25.80;;;;;;5126416;27;34286;-78
2022/09/12 07:04:09;;;;;;;5.45;3.63;;;14.50;25.70;;;;;;5071248;28;34069;-78
2022/09/12 07:06:40;;;;;;;8.27;3.75;;;14.50;25.60;;;;;;5068009;28;36883;-77
2022/09/12 07:09:09;;;;;;;4.93;3.33;;;14.50;25.70;;;;;;5067545;28;34497;-77
2022/09/12 07:11:37;;;;;;;10.73;3.60;;;14.60;25.70;;;;;;5060599;28;34149;-77
2022/09/12 07:14:06;;;;;;;14.35;3.80;;;14.60;25.10;;;;;;5087557;28;34104;-78
2022/09/12 07:16:33;;;;;;;5.40;3.60;;;14.60;24.40;;;;;;5106121;28;34421;-78
2022/09/12 07:19:01;;;;;;;4.90;3.45;;;14.60;24.40;;;;;;5068569;28;34184;-78
2022/09/12 07:21:28;;;;;;;5.15;3.40;;;14.70;25.50;;;;;;5088276;28;34269;-78
2022/09/12 07:23:56;;;;;;;7.07;4.18;;;14.80;24.40;;;;;;5071389;28;34141;-78
2022/09/12 07:26:24;;;;;;;4.35;3.95;;;14.80;24.90;;;;;;5106422;28;34448;-78
2022/09/12 07:28:53;;;;;;;5.10;3.80;;;15.00;24.90;;;;;;5088208;28;34093;-78
2022/09/12 07:31:20;;;;;;;4.55;3.28;;;15.10;25.40;;;;;;5105687;28;34231;-78
2022/09/12 07:33:46;;;;;;;5.85;4.07;;;15.30;24.20;;;;;;5088010;28;34379;-77
2022/09/12 07:36:15;;;;;;;8.02;3.70;;;15.40;24.40;;;;;;5086664;28;36313;-77
2022/09/12 07:38:42;;;;;;;5.13;3.85;;;15.50;24.10;;;;;;5088031;28;34157;-77
2022/09/12 07:41:12;;;;;;;5.25;3.80;;;15.60;24.20;;;;;;5106895;27;34627;-78
2022/09/12 07:43:38;;;;;;;8.18;4.40;;;15.60;24.30;;;;;;5109684;27;34347;-78
2022/09/12 07:46:05;;;;;;;8.98;4.38;;;15.70;24.00;;;;;;5088161;28;35457;-77
2022/09/12 07:48:31;;;;;;;7.68;4.35;;;15.90;24.10;;;;;;5122135;27;34348;-77
2022/09/12 07:51:00;;;;;;;7.28;4.47;;;16.00;23.80;;;;;;5111546;27;34276;-79
2022/09/12 07:53:31;;;;;;;6.80;4.18;;;16.10;23.80;;;;;;5122745;27;34133;-79
2022/09/12 07:55:57;;;;;;;5.30;4.13;;;16.10;23.50;;;;;;5130437;27;34532;-78
2022/09/12 07:58:24;;;;;;;5.53;4.28;;;16.00;23.60;;;;;;5122332;27;34179;-79
2022/09/12 08:00:49;;;;;;;6.78;4.85;;;16.10;23.80;;;;;;5096303;27;34297;-79
2022/09/12 08:03:16;;;;;;;6.60;4.57;;;16.30;23.30;;;;;;5113186;27;34040;-78
2022/09/12 08:05:42;;;;;;;4.88;4.30;;;16.40;22.90;;;;;;5106295;27;35569;-78
2022/09/12 08:08:09;;;;;;;5.60;4.43;;;16.50;23.30;;;;;;5121403;27;34404;-79
2022/09/12 08:10:35;;;;;;;6.47;4.65;;;16.60;23.70;;;;;;5117347;27;33646;-81
2022/09/12 08:13:02;;;;;;;7.38;4.82;;;16.60;22.70;;;;;;5127798;27;34253;-79
2022/09/12 08:15:30;;;;;;;6.82;5.05;;;16.60;23.70;;;;;;5088637;27;35909;-78
2022/09/12 08:17:55;;;;;;;6.95;4.65;;;16.60;23.40;;;;;;5127783;27;34073;-79
2022/09/12 08:20:21;;;;;;;6.78;5.13;;;16.70;23.30;;;;;;5103990;27;34316;-79
2022/09/12 08:22:48;;;;;;;6.50;4.80;;;16.70;23.40;;;;;;5113799;27;34560;-78
2022/09/12 08:25:14;;;;;;;6.65;4.97;;;16.80;23.00;;;;;;5086412;27;36128;-79
2022/09/12 08:27:41;;;;;;;7.25;4.82;;;16.90;24.10;;;;;;5096679;27;34151;-80
2022/09/12 08:30:08;;;;;;;5.65;4.65;;;17.00;23.30;;;;;;5112381;27;34224;-80
2022/09/12 08:32:34;;;;;;;8.32;4.75;;;17.10;23.60;;;;;;5097056;27;34370;-79
2022/09/12 08:35:00;;;;;;;6.55;4.32;;;17.10;24.10;;;;;;5111487;27;35973;-79
2022/09/12 08:37:30;;;;;;;6.07;4.65;;;17.20;23.50;;;;;;5126604;27;34435;-79
2022/09/12 08:39:56;;;;;;;7.00;5.03;;;17.30;23.70;;;;;;5108905;27;34320;-79
2022/09/12 08:42:44;;;;;;;5.78;4.78;;;17.50;24.60;;;;;;5106564;27;34206;-79
2022/09/12 08:45:20;;;;;;;8.00;5.03;;;17.80;23.40;;;;;;5110610;27;35797;-79
2022/09/12 08:47:48;;;;;;;6.78;4.72;;;18.00;22.60;;;;;;5124457;27;34314;-79
2022/09/12 08:50:17;;;;;;;7.47;4.93;;;18.10;22.70;;;;;;5107639;27;34503;-80
2022/09/12 08:53:04;;;;;;;7.13;4.90;;;18.30;22.70;;;;;;5110872;27;34194;-79
2022/09/12 08:55:34;;;;;;;5.82;4.55;;;18.50;23.70;;;;;;5121385;27;35753;-82
2022/09/12 08:58:18;;;;;;;5.45;4.35;;;18.80;22.70;;;;;;5113250;27;34381;-79
2022/09/12 09:01:06;;;;;;;6.72;4.80;;;19.00;22.70;;;;;;5097955;27;34861;-78
2022/09/12 09:03:49;;;;;;;6.55;4.28;;;19.20;21.70;;;;;;5075036;28;34226;-77
2022/09/12 09:06:38;;;;;;;6.75;4.57;;;19.50;22.00;;;;;;5106140;27;35210;-78
2022/09/12 09:09:13;;;;;;;5.15;4.40;;;19.60;20.40;;;;;;5125859;27;34141;-78
2022/09/12 09:11:53;;;;;;;6.25;4.40;;;19.80;21.40;;;;;;5107839;27;34308;-78
2022/09/12 09:17:34;;;;;;;19.17;11.88;;;20.10;20.90;;;;;;5116329;27;34122;-77
2022/09/12 09:20:21;;;;;;;4.68;4.18;;;20.20;20.80;;;;;;5127518;27;34205;-77
2022/09/12 09:22:55;;;;;;;4.72;3.90;;;20.40;20.70;;;;;;5128330;27;33721;-77
2022/09/12 09:25:54;;;;;;;5.78;3.78;;;20.60;21.00;;;;;;5110147;27;34471;-76
2022/09/12 09:28:33;;;;;;;6.65;4.20;;;20.90;20.00;;;;;;5112092;27;35590;-77
2022/09/12 09:30:59;;;;;;;6.85;4.35;;;21.10;19.70;;;;;;5110110;27;34164;-77
2022/09/12 09:33:29;;;;;;;7.57;4.88;;;21.30;19.80;;;;;;5104120;27;34129;-77
2022/09/12 09:36:03;;;;;;;5.47;4.22;;;21.60;18.90;;;;;;5136334;27;34160;-79
2022/09/12 09:38:47;;;;;;;6.68;3.75;;;21.90;18.30;;;;;;5111243;27;35533;-78
2022/09/12 09:41:30;;;;;;;7.40;4.78;;;22.20;17.70;;;;;;5126625;27;34193;-77
2022/09/12 09:43:57;;;;;;;4.93;4.28;;;22.50;17.50;;;;;;5124899;27;34218;-78
2022/09/12 09:46:23;;;;;;;5.28;4.05;;;22.70;18.10;;;;;;5136492;27;34108;-77
2022/09/12 09:48:50;;;;;;;4.07;3.75;;;22.90;18.50;;;;;;5110424;27;35907;-77
2022/09/12 09:51:23;;;;;;;4.88;3.72;;;23.10;18.40;;;;;;5125236;27;34105;-77
2022/09/12 09:54:00;;;;;;;5.07;3.85;;;23.40;17.10;;;;;;5122241;27;34086;-77
2022/09/12 09:56:32;;;;;;;4.22;3.60;;;23.70;15.70;;;;;;5115634;27;34325;-76
2022/09/12 09:59:10;;;;;;;3.35;3.05;;;23.90;16.40;;;;;;5085618;27;36795;-77
2022/09/12 10:01:42;;;;;;;3.95;3.47;;;24.20;15.30;;;;;;5111739;27;34254;-77
2022/09/12 10:04:18;;;;;;;5.53;3.67;;;24.30;16.10;;;;;;5106564;27;34347;-78
2022/09/12 10:06:45;;;;;;;3.75;3.30;;;24.30;14.20;;;;;;5087841;28;34530;-77
2022/09/12 10:09:19;;;;;;;4.28;3.35;;;24.50;15.70;;;;;;5117346;27;34517;-78
2022/09/12 10:11:46;;;;;;;3.80;3.50;;;24.70;14.30;;;;;;5124597;27;34490;-77
2022/09/12 10:14:37;;;;;;;3.92;3.53;;;24.90;15.30;;;;;;5122381;27;34076;-79
2022/09/12 10:17:24;;;;;;;4.05;3.00;;;25.20;11.20;;;;;;5114083;27;34170;-77
2022/09/12 10:19:50;;;;;;;3.15;2.85;;;25.30;10.10;;;;;;5100468;28;36972;-78
2022/09/12 10:22:19;;;;;;;3.60;2.70;;;25.40;14.70;;;;;;5122597;27;34316;-77
2022/09/12 10:24:49;;;;;;;3.28;2.55;;;25.30;13.50;;;;;;5150447;27;34175;-77
2022/09/12 10:27:19;;;;;;;4.07;2.97;;;25.30;13.40;;;;;;5138979;27;34145;-77
2022/09/12 10:29:54;;;;;;;2.40;2.20;;;25.40;12.30;;;;;;5116778;27;35329;-77
2022/09/12 10:32:28;;;;;;;3.88;2.28;;;25.50;12.10;;;;;;5131831;27;33551;-77
2022/09/12 10:35:00;;;;;;;3.03;2.25;;;25.70;10.00;;;;;;5122237;27;34245;-77
2022/09/12 10:37:32;;;;;;;2.42;2.15;;;25.70;11.50;;;;;;5107939;27;34275;-77
2022/09/12 10:40:00;;;;;;;3.03;1.60;;;26.00;12.00;;;;;;5122109;27;36120;-77
2022/09/12 10:42:46;;;;;;;2.90;2.08;;;26.20;12.30;;;;;;5101066;28;34439;-77
2022/09/12 10:45:29;;;;;;;2.10;2.00;;;26.10;8.10;;;;;;5117887;27;34509;-77
2022/09/12 10:47:58;;;;;;;1.98;1.83;;;26.20;6.80;;;;;;5121411;27;34209;-80
2022/09/12 10:50:30;;;;;;;1.80;1.70;;;26.10;11.20;;;;;;5122768;27;36401;-76
2022/09/12 10:53:17;;;;;;;1.60;1.50;;;26.20;10.70;;;;;;5105559;27;34427;-77
2022/09/12 10:56:06;;;;;;;1.92;1.50;;;26.40;7.20;;;;;;5115576;27;34026;-77
2022/09/12 10:59:07;;;;;;;1.40;1.30;;;26.50;6.20;;;;;;5129410;27;34425;-77
2022/09/12 11:01:40;;;;;;;3.20;1.48;;;26.60;7.10;;;;;;5114873;27;36380;-77
2022/09/12 11:04:41;;;;;;;1.63;1.40;;;26.80;8.30;;;;;;5115320;27;34450;-77
2022/09/12 11:07:34;;;;;;;1.52;1.40;;;26.90;6.00;;;;;;5111433;27;35474;-79
2022/09/12 11:10:35;;;;;;;1.50;1.40;;;27.00;5.20;;;;;;5119039;27;34202;-79
2022/09/12 11:13:24;;;;;;;1.40;1.30;;;27.00;5.30;;;;;;5131022;27;36327;-83
2022/09/12 11:16:24;;;;;;;2.15;1.20;;;27.00;3.40;;;;;;5129975;27;34445;-79
2022/09/12 11:19:08;;;;;;;1.63;1.20;;;27.00;5.30;;;;;;5115367;27;34382;-78
2022/09/12 11:22:00;;;;;;;1.13;1.10;;;27.00;6.30;;;;;;5130487;27;34336;-77
2022/09/12 11:24:50;;;;;;;2.70;1.42;;;27.10;5.10;;;;;;5147658;27;35586;-76
2022/09/12 11:27:44;;;;;;;1.15;1.00;;;27.20;4.40;;;;;;5122181;27;34222;-77
2022/09/12 11:30:13;;;;;;;1.27;1.13;;;27.20;3.80;;;;;;5130149;27;33947;-77
2022/09/12 11:33:04;;;;;;;4.70;1.20;;;27.10;7.60;;;;;;5130402;27;34121;-77
2022/09/12 11:35:32;;;;;;;1.38;1.20;;;27.00;2.20;;;;;;5129308;27;36379;-77
2022/09/12 11:38:17;;;;;;;1.40;1.30;;;27.00;8.10;;;;;;5113962;27;34198;-78
2022/09/12 11:40:53;;;;;;;2.03;1.30;;;27.10;4.00;;;;;;5114703;27;34252;-77
2022/09/12 11:43:45;;;;;;;0.77;0.77;;;27.10;6.30;;;;;;5103392;27;34343;-76
2022/09/12 11:46:30;;;;;;;1.17;0.90;;;27.20;1.00;;;;;;5130724;27;36833;-77
2022/09/12 11:49:20;;;;;;;0.85;0.85;;;27.30;3.80;;;;;;5100896;27;34236;-77
2022/09/12 11:52:11;;;;;;;1.98;0.77;;;27.50;5.50;;;;;;5130571;27;34223;-79
2022/09/12 11:54:56;;;;;;;1.30;0.80;;;27.50;1.00;;;;;;5122094;27;34690;-76
2022/09/12 11:57:44;;;;;;;1.10;1.00;;;27.60;3.00;;;;;;5123441;27;36701;-76
2022/09/12 12:00:29;;;;;;;1.17;1.08;;;27.50;3.40;;;;;;5135498;27;34322;-77
2022/09/12 12:03:17;;;;;;;1.42;0.80;;;27.60;1.30;;;;;;5141740;27;34375;-78
2022/09/12 12:06:04;;;;;;;0.80;0.80;;;27.70;1.90;;;;;;5104241;28;34213;-77
2022/09/12 12:08:36;;;;;;;1.00;0.90;;;27.80;1.00;;;;;;5107407;28;34444;-76
2022/09/12 12:11:03;;;;;;;0.77;0.77;;;27.80;4.40;;;;;;5107515;27;34347;-78
2022/09/12 12:13:34;;;;;;;2.95;1.08;;;27.90;4.20;;;;;;5108673;27;34242;-76
2022/09/12 12:16:23;;;;;;;1.20;1.10;;;27.90;4.10;;;;;;5122961;27;34199;-77
2022/09/12 12:18:59;;;;;;;1.08;1.05;;;27.80;1.00;;;;;;5134739;27;35523;-79
2022/09/12 12:21:36;;;;;;;1.15;0.85;;;27.60;1.30;;;;;;5133486;27;34356;-79
2022/09/12 12:24:14;;;;;;;1.30;0.90;;;27.50;1.90;;;;;;5128975;27;34438;-78
2022/09/12 12:26:56;;;;;;;1.38;1.00;;;27.50;1.00;;;;;;5115002;27;34081;-77
2022/09/12 12:29:40;;;;;;;0.88;0.80;;;27.50;3.20;;;;;;5112992;27;35515;-77
2022/09/12 12:32:22;;;;;;;1.38;1.10;;;27.50;1.10;;;;;;5149106;27;34565;-78
2022/09/12 12:34:48;;;;;;;2.25;1.23;;;27.60;1.00;;;;;;5129898;27;34162;-77
2022/09/12 12:37:47;;;;;;;1.77;0.90;;;27.60;4.30;;;;;;5147664;27;34176;-82
2022/09/12 12:40:24;;;;;;;1.40;0.90;;;27.70;2.10;;;;;;5117185;27;36364;-77
2022/09/12 12:43:03;;;;;;;1.23;1.13;;;27.70;2.00;;;;;;5112658;27;34011;-77
2022/09/12 12:45:47;;;;;;;3.17;1.00;;;27.70;1.40;;;;;;5115625;27;34092;-79
2022/09/12 12:48:17;;;;;;;1.35;0.80;;;27.60;1.00;;;;;;5130812;27;34156;-79
2022/09/12 12:50:44;;;;;;;1.27;1.00;;;27.60;3.10;;;;;;5130302;27;36054;-79
2022/09/12 12:53:26;;;;;;;2.15;0.80;;;27.70;4.50;;;;;;5131020;27;34404;-77
2022/09/12 12:55:55;;;;;;;3.22;1.00;;;27.70;2.00;;;;;;5129223;27;34129;-78
2022/09/12 12:58:40;;;;;;;1.38;1.27;;;27.80;3.00;;;;;;5113755;27;34534;-77
2022/09/12 13:01:16;;;;;;;1.08;0.95;;;27.80;1.00;;;;;;5127229;27;36556;-79
2022/09/12 13:03:45;;;;;;;1.83;1.00;;;27.80;1.00;;;;;;5118284;27;34058;-79
2022/09/12 13:06:31;;;;;;;0.98;0.98;;;27.80;2.90;;;;;;5128662;27;33906;-78
2022/09/12 13:09:02;;;;;;;1.10;0.90;;;27.90;1.00;;;;;;5121895;27;34521;-78
2022/09/12 13:11:32;;;;;;;1.58;0.95;;;27.80;1.10;;;;;;5104694;28;36019;-77
2022/09/12 13:14:03;;;;;;;1.70;0.90;;;27.70;1.50;;;;;;5106694;27;34095;-78
2022/09/12 13:16:33;;;;;;;0.98;0.90;;;27.60;1.00;;;;;;5109458;27;34300;-78
2022/09/12 13:19:11;;;;;;;3.20;0.80;;;27.60;1.50;;;;;;5108343;27;34416;-78
2022/09/12 13:21:37;;;;;;;1.10;1.00;;;27.60;1.70;;;;;;5089620;28;36261;-77
2022/09/12 13:24:12;;;;;;;1.20;1.00;;;27.70;3.30;;;;;;5123249;27;34118;-78